MDT,Max TemperatureF,Mean TemperatureF,Min TemperatureF,Max Dew PointF,MeanDew PointF,Min DewpointF,Max Humidity, Mean Humidity, Min Humidity, Max Sea Level PressureIn, Mean Sea Level PressureIn, Min Sea Level PressureIn, Max VisibilityMiles, Mean VisibilityMiles, Min VisibilityMiles, Max Wind SpeedMPH, Mean Wind SpeedMPH, Max Gust SpeedMPH,PrecipitationIn, CloudCover, Events, WindDirDegrees
2013-4-1,54,41,28,24,19,12,75,48,20,30.14,30.11,30.07,10,10,10,17,6,25,0.00,1,,47
2013-4-2,62,45,28,23,18,15,54,36,17,30.11,30.02,29.91,10,10,10,21,9,26,0.00,0,,170
2013-4-3,62,49,35,29,23,16,64,45,25,30.10,29.98,29.88,10,10,10,31,12,38,0.00,2,,318
2013-4-4,64,50,35,32,29,24,70,49,27,30.07,29.94,29.78,10,10,10,20,6,25,0.00,3,,229
2013-4-5,61,51,41,43,34,28,82,59,35,29.78,29.69,29.60,10,9,2,36,11,47,0.16,4,Rain-Thunderstorm,334
2013-4-6,59,49,39,33,30,25,65,51,36,29.87,29.78,29.72,10,10,10,24,7,32,0.00,6,,321
2013-4-7,59,48,36,37,33,25,82,56,30,29.76,29.63,29.51,10,10,10,17,6,24,T,2,,322
2013-4-8,40,28,15,36,18,10,96,87,77,30.26,29.91,29.55,10,4,0,39,29,49,T,7,Fog-Snow,347
2013-4-9,18,15,11,11,9,7,88,78,67,30.48,30.29,30.10,10,3,0,31,15,35,T,8,Fog-Snow,355
2013-4-10,34,22,10,22,14,7,88,72,56,30.39,30.18,29.90,10,8,2,15,8,18,T,4,Snow,138
2013-4-11,51,38,25,35,28,19,84,65,46,29.89,29.83,29.78,10,10,10,43,17,55,0.03,5,,327
2013-4-12,43,37,30,31,27,21,92,69,45,30.00,29.92,29.83,10,7,1,38,17,48,0.01,6,Snow,336
2013-4-13,57,44,31,31,28,23,92,62,32,29.76,29.45,29.26,10,8,0,41,15,52,0.06,6,Fog-Snow-Thunderstorm,345
2013-4-14,37,28,19,27,20,15,91,71,51,29.89,29.66,29.45,10,6,1,44,27,56,T,8,Snow,340
2013-4-15,29,22,15,16,13,10,84,67,50,30.18,29.97,29.80,10,10,7,22,11,28,T,8,Snow,357
2013-4-16,26,23,20,20,18,15,92,83,74,30.32,30.12,30.04,10,2,0,15,7,22,0.08,8,Fog-Snow,15
2013-4-17,27,22,16,19,16,14,92,77,62,30.34,30.21,30.13,10,5,1,31,17,38,0.02,7,Snow,349
2013-4-18,42,26,10,23,14,4,80,58,36,30.31,30.20,30.07,10,10,10,35,15,44,0.00,1,,343
2013-4-19,49,39,29,26,24,19,72,55,38,30.06,29.93,29.81,10,10,9,28,5,36,0.00,5,,357
2013-4-20,53,43,32,36,30,26,79,59,39,29.91,29.86,29.81,10,10,10,23,7,29,T,6,,313
2013-4-21,45,35,25,34,30,23,100,79,57,30.17,30.05,29.92,10,4,0,22,10,28,0.24,8,Fog-Rain-Snow,5
2013-4-22,25,18,11,23,17,2,92,77,61,30.52,30.29,30.10,10,3,0,22,12,28,0.06,7,Fog-Snow,342
2013-4-23,34,21,8,18,8,0,69,54,38,30.48,30.31,30.18,10,10,10,21,5,26,0.00,0,,253
2013-4-24,45,35,24,28,25,14,85,69,52,30.25,30.16,30.01,10,6,0,25,12,37,T,6,Fog-Snow,333
2013-4-25,62,52,41,26,17,9,45,29,12,29.97,29.87,29.78,10,10,10,24,8,31,0.00,0,,275
2013-4-26,68,52,36,31,25,21,53,36,18,30.11,30.05,29.96,10,10,10,15,7,24,0.00,0,,278
2013-4-27,74,59,43,29,25,18,45,29,13,30.06,29.94,29.77,10,10,10,22,7,29,0.00,0,,262
2013-4-28,60,50,39,42,34,24,89,60,30,29.94,29.86,29.75,10,10,7,29,14,40,0.07,3,Rain,331
2013-4-29,67,51,34,38,33,28,89,57,24,29.79,29.63,29.40,10,8,1,40,14,52,0.07,4,Rain-Snow,320
2013-4-30,42,36,30,30,26,17,92,66,39,30.24,30.00,29.68,10,6,1,25,13,36,0.03,8,Snow,333